Time;durP1;ratioP1;P1;durP2;ratioP2;P2;SDS_P1;SDS_P2;PMS_P1;PMS_P2;Temp;Humidity;BMP_temperature;BMP_pressure;BME280_temperature;BME280_humidity;BME280_pressure;Samples;Min_cycle;Max_cycle;Signal;HPM_P1;HPM_P2
2023/02/02 00:01:54;;;;;;;24.80;3.97;;;7.20;99.90;;;;;;5031863;28;20105;-53
2023/02/02 00:04:26;;;;;;;23.88;3.80;;;7.30;99.90;;;;;;5031594;28;20034;-52
2023/02/02 00:06:53;;;;;;;20.20;3.37;;;7.30;99.90;;;;;;5031621;28;20038;-50
2023/02/02 00:09:19;;;;;;;25.20;5.03;;;7.30;99.90;;;;;;5031611;28;20076;-50
2023/02/02 00:11:47;;;;;;;28.67;4.30;;;7.30;99.90;;;;;;5031545;28;20431;-54
2023/02/02 00:14:13;;;;;;;18.40;3.30;;;7.30;99.90;;;;;;5031523;28;20045;-51
2023/02/02 00:16:47;;;;;;;22.97;4.03;;;7.30;99.90;;;;;;5031265;28;20036;-52
2023/02/02 00:19:20;;;;;;;24.70;4.13;;;7.30;99.90;;;;;;5031438;28;20029;-52
2023/02/02 00:21:46;;;;;;;22.23;5.10;;;7.20;99.90;;;;;;5031379;28;20030;-53
2023/02/02 00:24:13;;;;;;;23.60;3.70;;;7.20;99.90;;;;;;5031125;28;20029;-54
2023/02/02 00:26:41;;;;;;;21.87;4.30;;;7.20;99.90;;;;;;5031191;28;20072;-49
2023/02/02 00:29:12;;;;;;;18.70;4.03;;;7.20;99.90;;;;;;5031493;28;20029;-52
2023/02/02 00:31:38;;;;;;;22.20;4.60;;;7.20;99.90;;;;;;5031404;28;20397;-48
2023/02/02 00:34:04;;;;;;;24.23;5.30;;;7.20;99.90;;;;;;5031006;28;20029;-49
2023/02/02 00:36:29;;;;;;;24.57;5.13;;;7.10;99.90;;;;;;5029604;28;20570;-50
2023/02/02 00:38:55;;;;;;;24.53;4.33;;;7.00;99.90;;;;;;5029736;28;20083;-51
2023/02/02 00:41:22;;;;;;;22.43;4.83;;;7.00;99.90;;;;;;5029753;28;20034;-51
2023/02/02 00:45:14;;;;;;;29.17;5.20;;;7.00;99.90;;;;;;5030706;28;20180;-49
2023/02/02 00:46:33;;;;;;;39.77;6.27;;;7.00;99.90;;;;;;5029999;28;20079;-53
2023/02/02 00:48:59;;;;;;;25.30;4.67;;;6.90;99.90;;;;;;5031003;28;20084;-53
2023/02/02 00:51:25;;;;;;;28.07;4.50;;;6.90;99.90;;;;;;5030847;28;20493;-54
2023/02/02 00:53:51;;;;;;;20.40;3.70;;;6.80;99.90;;;;;;5030810;28;20445;-55
2023/02/02 00:56:17;;;;;;;27.90;4.00;;;6.80;99.90;;;;;;5030737;28;20029;-52
2023/02/02 00:58:42;;;;;;;21.33;4.20;;;6.80;99.90;;;;;;5030728;28;20040;-51
2023/02/02 01:01:22;;;;;;;41.47;5.90;;;6.70;99.90;;;;;;5029515;28;20427;-53
2023/02/02 01:03:49;;;;;;;26.90;5.10;;;6.70;99.90;;;;;;5029193;28;20036;-52
2023/02/02 01:06:16;;;;;;;29.67;4.93;;;6.70;99.90;;;;;;5029330;28;20029;-52
2023/02/02 01:08:42;;;;;;;27.20;4.77;;;6.70;99.90;;;;;;5029279;28;20131;-50
2023/02/02 01:11:08;;;;;;;29.73;5.77;;;6.70;99.90;;;;;;5030725;28;20068;-54
2023/02/02 01:13:34;;;;;;;34.00;7.00;;;6.70;99.90;;;;;;5030422;28;20037;-54
2023/02/02 01:16:01;;;;;;;25.03;6.17;;;6.70;99.90;;;;;;5030566;28;20039;-55
2023/02/02 01:18:28;;;;;;;28.80;7.27;;;6.70;99.90;;;;;;5028962;28;20625;-51
2023/02/02 01:21:01;;;;;;;33.03;6.93;;;6.70;99.90;;;;;;5029209;28;20045;-52
2023/02/02 01:23:27;;;;;;;28.63;6.40;;;6.70;99.90;;;;;;5030198;28;20021;-49
2023/02/02 01:25:58;;;;;;;27.50;7.03;;;6.80;99.90;;;;;;5030555;28;20034;-54
2023/02/02 01:28:24;;;;;;;28.37;6.20;;;6.80;99.90;;;;;;5030389;28;20490;-51
2023/02/02 01:30:51;;;;;;;22.47;5.60;;;6.80;99.90;;;;;;5030444;28;20032;-51
2023/02/02 01:33:17;;;;;;;27.97;5.70;;;6.90;99.90;;;;;;5029196;28;20060;-51
2023/02/02 01:35:51;;;;;;;24.17;5.00;;;6.90;99.90;;;;;;5028849;28;20034;-53
2023/02/02 01:38:18;;;;;;;28.87;6.57;;;6.90;99.90;;;;;;5030196;28;20113;-54
2023/02/02 01:40:55;;;;;;;25.90;5.10;;;6.90;99.90;;;;;;5030363;28;20032;-52
2023/02/02 01:43:28;;;;;;;30.10;6.03;;;6.90;99.90;;;;;;5028891;28;20498;-54
2023/02/02 01:45:56;;;;;;;30.13;5.43;;;6.80;99.90;;;;;;5030319;28;20041;-50
2023/02/02 01:48:27;;;;;;;26.33;5.80;;;6.80;99.90;;;;;;5030036;28;20037;-51
2023/02/02 01:50:56;;;;;;;21.77;5.10;;;6.90;99.90;;;;;;5028828;28;20044;-50
2023/02/02 01:53:23;;;;;;;24.57;5.07;;;6.90;99.90;;;;;;5030094;28;20037;-53
2023/02/02 01:55:50;;;;;;;27.80;5.27;;;6.90;99.90;;;;;;5028805;28;20033;-54
2023/02/02 01:58:34;;;;;;;27.43;5.33;;;6.80;99.90;;;;;;5031714;28;20510;-48
2023/02/02 02:01:00;;;;;;;22.03;5.50;;;6.90;99.90;;;;;;5032825;28;20040;-52
2023/02/02 02:03:30;;;;;;;29.17;4.93;;;6.80;99.90;;;;;;5033790;28;20108;-52
2023/02/02 02:06:02;;;;;;;36.00;5.77;;;6.80;99.90;;;;;;5032701;28;20391;-55
2023/02/02 02:08:36;;;;;;;19.83;4.77;;;6.80;99.90;;;;;;5033772;28;20036;-52
2023/02/02 02:11:02;;;;;;;26.23;5.70;;;6.90;99.90;;;;;;5032622;28;20038;-51
2023/02/02 02:16:35;;;;;;;25.30;5.47;;;6.90;99.90;;;;;;5033747;28;20025;-51
2023/02/02 02:26:32;;;;;;;21.83;4.83;;;6.90;99.90;;;;;;5033615;28;20478;-55
2023/02/02 02:29:13;;;;;;;31.73;5.57;;;7.00;99.90;;;;;;5033408;28;20055;-52
2023/02/02 02:32:05;;;;;;;22.23;5.00;;;7.00;99.90;;;;;;5033603;28;20029;-54
2023/02/02 02:34:56;;;;;;;21.13;4.60;;;7.00;99.90;;;;;;5031947;28;20040;-53
2023/02/02 02:37:29;;;;;;;20.83;5.80;;;7.00;99.90;;;;;;5031955;28;20033;-53
2023/02/02 02:40:20;;;;;;;25.53;5.43;;;7.00;99.90;;;;;;5032056;28;20053;-52
2023/02/02 02:42:53;;;;;;;29.27;5.40;;;6.90;99.90;;;;;;5032031;28;20033;-50
2023/02/02 02:45:20;;;;;;;28.37;5.50;;;7.00;99.90;;;;;;5031634;28;20029;-53
2023/02/02 02:47:47;;;;;;;26.57;5.60;;;6.90;99.90;;;;;;5031692;28;20032;-51
2023/02/02 02:50:13;;;;;;;25.67;5.67;;;6.80;99.90;;;;;;5033058;28;20029;-52
2023/02/02 02:52:40;;;;;;;26.00;5.37;;;6.80;99.90;;;;;;5033126;28;20022;-53
2023/02/02 02:55:08;;;;;;;36.27;6.30;;;6.80;99.90;;;;;;5031496;28;20022;-55
2023/02/02 02:58:25;;;;;;;30.13;5.50;;;6.80;99.90;;;;;;5031646;28;20032;-51
2023/02/02 03:01:20;;;;;;;31.07;5.83;;;6.80;99.90;;;;;;4999364;28;20049;-51
2023/02/02 03:03:53;;;;;;;26.10;5.27;;;6.80;99.90;;;;;;5032712;28;20167;-52
2023/02/02 03:06:41;;;;;;;27.27;5.90;;;6.80;99.90;;;;;;5032848;28;20030;-54
2023/02/02 03:09:21;;;;;;;32.63;6.20;;;6.70;99.90;;;;;;5032149;28;20029;-52
2023/02/02 03:11:47;;;;;;;32.97;5.90;;;6.80;99.90;;;;;;5032965;28;20087;-52
2023/02/02 03:14:13;;;;;;;26.00;5.80;;;6.80;99.90;;;;;;5032555;28;20104;-52
2023/02/02 03:16:39;;;;;;;25.23;5.57;;;6.80;99.90;;;;;;5032386;28;20060;-55
2023/02/02 03:19:06;;;;;;;29.03;5.23;;;6.80;99.90;;;;;;5032604;28;20032;-51
2023/02/02 03:21:33;;;;;;;31.67;5.80;;;6.80;99.90;;;;;;5032481;28;20044;-52
2023/02/02 03:23:59;;;;;;;28.03;5.33;;;6.80;99.90;;;;;;5032354;28;20026;-54
2023/02/02 03:26:25;;;;;;;25.50;5.37;;;6.90;99.90;;;;;;5032356;28;20035;-51
2023/02/02 03:28:53;;;;;;;20.20;5.40;;;6.90;99.90;;;;;;5032436;28;20030;-52
2023/02/02 03:31:19;;;;;;;26.47;5.00;;;6.90;99.90;;;;;;5032460;28;20029;-53
2023/02/02 03:33:45;;;;;;;25.43;5.53;;;6.80;99.90;;;;;;5032019;28;20487;-52
2023/02/02 03:36:11;;;;;;;18.93;5.07;;;6.90;99.90;;;;;;5032421;28;20053;-53
2023/02/02 03:38:37;;;;;;;32.80;4.87;;;6.90;99.90;;;;;;5032057;28;20032;-54
2023/02/02 03:41:04;;;;;;;24.23;5.10;;;6.90;99.90;;;;;;5032232;28;20037;-50
2023/02/02 03:43:30;;;;;;;24.27;5.37;;;7.00;99.90;;;;;;5031968;28;20029;-53
2023/02/02 03:45:57;;;;;;;24.67;5.60;;;7.10;99.90;;;;;;5044225;23;20056;-52
2023/02/02 03:48:24;;;;;;;23.97;6.10;;;7.10;99.90;;;;;;5031296;28;20527;-53
2023/02/02 03:50:49;;;;;;;20.47;5.10;;;7.00;99.90;;;;;;5031814;28;20049;-54
2023/02/02 03:53:15;;;;;;;22.00;5.83;;;7.00;99.90;;;;;;5032266;28;20185;-50
2023/02/02 03:55:41;;;;;;;29.27;5.50;;;7.00;99.90;;;;;;5031652;28;20041;-53
2023/02/02 03:58:06;;;;;;;25.53;6.63;;;7.00;99.90;;;;;;5031784;28;20030;-52
2023/02/02 04:00:32;;;;;;;28.90;6.67;;;6.90;99.90;;;;;;5031772;28;20026;-51
2023/02/02 04:02:58;;;;;;;29.83;6.50;;;6.90;99.90;;;;;;5031794;28;20446;-50
2023/02/02 04:05:24;;;;;;;20.63;5.80;;;7.00;99.90;;;;;;5031395;28;20041;-53
2023/02/02 04:07:49;;;;;;;27.10;6.43;;;6.90;99.90;;;;;;5031523;28;20057;-51
2023/02/02 04:10:16;;;;;;;25.73;6.00;;;7.00;99.90;;;;;;5031679;28;20064;-52
2023/02/02 04:12:42;;;;;;;32.63;7.17;;;7.00;99.90;;;;;;5031650;28;20029;-51
2023/02/02 04:15:08;;;;;;;26.43;5.63;;;7.00;99.90;;;;;;5031316;28;20036;-52
2023/02/02 04:17:34;;;;;;;24.80;5.37;;;7.00;99.90;;;;;;5031345;28;20116;-52
2023/02/02 04:20:00;;;;;;;23.00;5.60;;;7.00;99.90;;;;;;5030760;28;20112;-50
2023/02/02 04:22:26;;;;;;;22.30;5.00;;;7.00;99.90;;;;;;5031076;28;20033;-52
2023/02/02 04:24:52;;;;;;;24.93;5.70;;;7.00;99.90;;;;;;5029798;28;20036;-49
2023/02/02 04:27:17;;;;;;;23.70;4.87;;;7.10;99.90;;;;;;5031139;28;20029;-50
2023/02/02 04:29:43;;;;;;;23.80;5.20;;;7.10;99.90;;;;;;5031238;28;20044;-52
2023/02/02 04:32:09;;;;;;;24.97;5.30;;;7.10;99.90;;;;;;5031133;28;20144;-49
2023/02/02 04:34:34;;;;;;;21.40;4.67;;;7.10;99.90;;;;;;5030935;28;20083;-50
2023/02/02 04:37:00;;;;;;;24.20;5.50;;;7.20;99.90;;;;;;5030934;28;20363;-54
2023/02/02 04:39:26;;;;;;;28.23;5.07;;;7.20;99.90;;;;;;5020424;28;20067;-51
2023/02/02 04:41:52;;;;;;;26.47;4.50;;;7.30;99.90;;;;;;5026690;28;20061;-49
2023/02/02 04:44:17;;;;;;;25.13;4.77;;;7.30;99.90;;;;;;5029295;28;20034;-51
2023/02/02 04:46:43;;;;;;;21.43;5.37;;;7.20;99.90;;;;;;5029274;28;20037;-52
2023/02/02 04:49:10;;;;;;;27.27;4.80;;;7.20;99.90;;;;;;5029434;28;20041;-50
2023/02/02 04:51:38;;;;;;;20.07;4.60;;;7.20;99.90;;;;;;5029384;28;20103;-49
2023/02/02 04:54:04;;;;;;;24.07;4.27;;;7.20;99.90;;;;;;5029235;28;20040;-52
2023/02/02 04:56:30;;;;;;;24.60;4.23;;;7.30;99.90;;;;;;5028265;28;20033;-51
2023/02/02 04:58:56;;;;;;;21.87;4.43;;;7.20;99.90;;;;;;5029537;28;20033;-51
2023/02/02 05:01:22;;;;;;;23.13;4.60;;;7.30;99.90;;;;;;5029345;28;20389;-49
2023/02/02 05:03:49;;;;;;;27.07;5.47;;;7.30;99.90;;;;;;5029149;28;20041;-53
2023/02/02 05:06:15;;;;;;;26.07;4.50;;;7.20;99.90;;;;;;5029066;28;20034;-53
2023/02/02 05:08:44;;;;;;;22.43;4.83;;;7.30;99.90;;;;;;5029136;28;20037;-51
2023/02/02 05:11:12;;;;;;;25.98;5.32;;;7.30;99.90;;;;;;5028057;28;20034;-52
2023/02/02 05:13:38;;;;;;;25.03;5.77;;;7.30;99.90;;;;;;5029174;28;20033;-50
2023/02/02 05:16:05;;;;;;;19.57;4.50;;;7.30;99.90;;;;;;5028646;28;20367;-53
2023/02/02 05:18:31;;;;;;;24.13;5.27;;;7.30;99.90;;;;;;5028999;28;20025;-48
2023/02/02 05:21:03;;;;;;;33.17;5.10;;;7.40;99.90;;;;;;5028638;28;20029;-46
2023/02/02 05:23:29;;;;;;;22.57;4.80;;;7.40;99.90;;;;;;5029189;28;20033;-50
2023/02/02 05:25:56;;;;;;;25.97;5.07;;;7.40;99.90;;;;;;5028196;28;20037;-50
2023/02/02 05:28:22;;;;;;;41.33;14.57;;;7.40;99.90;;;;;;5027826;28;20084;-48
2023/02/02 05:30:49;;;;;;;33.50;9.43;;;7.50;99.90;;;;;;5028659;28;20116;-51
2023/02/02 05:33:17;;;;;;;27.93;6.10;;;7.50;99.90;;;;;;5032595;28;20095;-50
2023/02/02 05:35:47;;;;;;;27.97;5.10;;;7.40;99.90;;;;;;5033228;28;20040;-48
2023/02/02 05:38:14;;;;;;;24.37;5.03;;;7.50;99.90;;;;;;5033423;28;20152;-54
2023/02/02 05:40:39;;;;;;;23.57;5.03;;;7.50;99.90;;;;;;5032270;28;20489;-53
2023/02/02 05:43:05;;;;;;;22.23;5.13;;;7.50;99.90;;;;;;5033007;28;20108;-52
2023/02/02 05:45:31;;;;;;;24.30;5.27;;;7.40;99.90;;;;;;5031495;28;20045;-54
2023/02/02 05:47:57;;;;;;;25.23;5.60;;;7.40;99.90;;;;;;5033136;28;20482;-54
2023/02/02 05:50:23;;;;;;;24.13;5.10;;;7.40;99.90;;;;;;5033134;28;20455;-49
2023/02/02 05:53:00;;;;;;;27.57;5.90;;;7.40;99.90;;;;;;5033351;28;20044;-48
2023/02/02 05:55:26;;;;;;;32.07;6.97;;;7.40;99.90;;;;;;5032032;28;20029;-54
2023/02/02 05:57:52;;;;;;;20.97;5.17;;;7.40;99.90;;;;;;5032983;28;20478;-52
2023/02/02 06:00:18;;;;;;;26.83;5.80;;;7.40;99.90;;;;;;5032906;28;20037;-56
2023/02/02 06:02:44;;;;;;;17.70;4.73;;;7.50;99.90;;;;;;5033473;28;20045;-56
2023/02/02 06:05:09;;;;;;;27.00;4.70;;;7.50;99.90;;;;;;5032514;28;20041;-56
2023/02/02 06:07:35;;;;;;;25.60;5.03;;;7.50;99.90;;;;;;5032887;28;20037;-54
2023/02/02 06:10:01;;;;;;;26.47;4.83;;;7.50;99.90;;;;;;5031475;28;20474;-58
2023/02/02 06:12:26;;;;;;;20.37;4.63;;;7.50;99.90;;;;;;5032762;28;20033;-60
2023/02/02 06:14:52;;;;;;;25.30;5.43;;;7.50;99.90;;;;;;5032640;28;20033;-54
2023/02/02 06:17:18;;;;;;;18.73;4.23;;;7.50;99.90;;;;;;5028475;28;20523;-56
2023/02/02 06:19:44;;;;;;;23.67;4.97;;;7.50;99.90;;;;;;5027973;28;20143;-55
2023/02/02 06:22:10;;;;;;;21.13;4.43;;;7.50;99.90;;;;;;5011282;28;20025;-54
2023/02/02 06:24:35;;;;;;;19.43;4.40;;;7.50;99.90;;;;;;5028564;28;20060;-53
2023/02/02 06:27:01;;;;;;;18.67;4.87;;;7.70;99.90;;;;;;5032318;28;20033;-57
2023/02/02 06:29:27;;;;;;;21.40;4.37;;;7.70;99.90;;;;;;5032234;28;20324;-56
2023/02/02 06:31:52;;;;;;;22.97;5.03;;;7.70;99.90;;;;;;5032700;28;20072;-56
2023/02/02 06:34:18;;;;;;;23.77;4.80;;;7.70;99.90;;;;;;5029160;28;20107;-52
2023/02/02 06:36:44;;;;;;;21.60;4.40;;;7.60;99.90;;;;;;5020103;28;20037;-59
2023/02/02 06:39:10;;;;;;;23.20;4.50;;;7.60;99.90;;;;;;5031516;28;20034;-59
2023/02/02 06:41:36;;;;;;;21.33;4.17;;;7.60;99.90;;;;;;5031994;28;20458;-59
2023/02/02 06:44:02;;;;;;;23.63;4.60;;;7.60;99.90;;;;;;5030770;28;20103;-58
2023/02/02 06:46:28;;;;;;;20.17;4.03;;;7.60;99.90;;;;;;5031755;28;20037;-58
2023/02/02 06:48:53;;;;;;;30.83;5.10;;;7.60;99.90;;;;;;5032075;28;20486;-58
2023/02/02 06:51:19;;;;;;;14.23;4.40;;;7.70;99.90;;;;;;5031976;28;20184;-59
2023/02/02 06:53:48;;;;;;;20.13;4.97;;;7.60;99.90;;;;;;5032052;28;20029;-59
2023/02/02 06:56:15;;;;;;;22.42;5.35;;;7.70;99.90;;;;;;5030483;28;20029;-59
2023/02/02 06:58:40;;;;;;;22.53;6.30;;;7.70;99.90;;;;;;5031650;28;20084;-60
2023/02/02 07:01:09;;;;;;;18.63;4.53;;;7.70;99.90;;;;;;5031457;28;20033;-60
2023/02/02 07:03:35;;;;;;;19.47;4.90;;;7.70;99.90;;;;;;5031763;28;20037;-59
2023/02/02 07:06:30;;;;;;;17.13;5.27;;;7.70;99.90;;;;;;5031350;28;20551;-58
2023/02/02 07:08:56;;;;;;;28.77;6.37;;;7.60;99.90;;;;;;5022556;28;20057;-54
2023/02/02 07:11:21;;;;;;;25.97;6.30;;;7.60;99.90;;;;;;5029596;28;20025;-52
2023/02/02 07:13:48;;;;;;;24.03;5.80;;;7.60;99.90;;;;;;5031239;28;20033;-51
2023/02/02 07:16:16;;;;;;;29.97;6.43;;;7.70;99.90;;;;;;5031103;28;20061;-52
2023/02/02 07:18:42;;;;;;;21.83;6.07;;;7.60;99.90;;;;;;5029977;28;20065;-52
2023/02/02 07:21:15;;;;;;;27.90;6.70;;;7.60;99.90;;;;;;5028193;28;20095;-50
2023/02/02 07:23:40;;;;;;;22.70;6.63;;;7.50;99.90;;;;;;5030937;28;20021;-52
2023/02/02 07:26:08;;;;;;;29.90;6.27;;;7.60;99.90;;;;;;5029453;28;20033;-49
2023/02/02 07:28:34;;;;;;;21.50;5.80;;;7.70;99.90;;;;;;5030798;28;20033;-52
2023/02/02 07:31:11;;;;;;;27.07;7.17;;;7.60;99.90;;;;;;5030819;28;20087;-53
2023/02/02 07:33:39;;;;;;;23.87;6.23;;;7.60;99.90;;;;;;5030725;28;20044;-53
2023/02/02 07:36:05;;;;;;;25.27;6.93;;;7.70;99.90;;;;;;5030415;28;20140;-53
2023/02/02 07:38:30;;;;;;;26.83;6.30;;;7.70;99.90;;;;;;5030894;28;20078;-52
2023/02/02 07:40:59;;;;;;;23.93;6.17;;;7.60;99.90;;;;;;5029212;28;20485;-52
2023/02/02 07:43:25;;;;;;;27.05;6.82;;;7.70;99.90;;;;;;5030731;28;20025;-53
2023/02/02 07:45:51;;;;;;;24.33;6.00;;;7.60;99.90;;;;;;5030123;28;20405;-53
2023/02/02 07:48:16;;;;;;;22.93;6.00;;;7.70;99.90;;;;;;5030298;28;20346;-54
2023/02/02 07:50:42;;;;;;;25.13;5.67;;;7.70;99.90;;;;;;5030075;28;20037;-53
2023/02/02 07:53:08;;;;;;;26.33;5.90;;;7.70;99.90;;;;;;5030413;28;20183;-52
2023/02/02 07:55:33;;;;;;;22.37;5.70;;;7.70;99.90;;;;;;5028714;28;20026;-51
2023/02/02 07:58:02;;;;;;;21.80;5.77;;;7.70;99.90;;;;;;5030416;28;20493;-53
2023/02/02 08:00:28;;;;;;;20.20;5.53;;;7.60;99.90;;;;;;5030137;28;20025;-52
2023/02/02 08:02:54;;;;;;;20.77;6.57;;;7.60;99.90;;;;;;5029872;28;20390;-51
2023/02/02 08:05:21;;;;;;;32.47;8.70;;;7.60;99.90;;;;;;5029603;28;20034;-50
2023/02/02 08:07:47;;;;;;;24.70;8.70;;;7.60;99.90;;;;;;5028233;28;20436;-54
2023/02/02 08:10:13;;;;;;;19.00;6.10;;;7.60;99.90;;;;;;5029032;28;20029;-53
2023/02/02 08:12:38;;;;;;;20.90;5.70;;;7.60;99.90;;;;;;5030098;28;20125;-52
2023/02/02 08:15:05;;;;;;;23.50;5.83;;;7.70;99.90;;;;;;5029320;28;20040;-51
2023/02/02 08:17:30;;;;;;;23.73;6.17;;;7.70;99.90;;;;;;5029144;28;20033;-53
2023/02/02 08:19:56;;;;;;;23.17;5.97;;;7.60;99.90;;;;;;5029691;28;20120;-52
2023/02/02 08:22:22;;;;;;;24.00;5.70;;;7.60;99.90;;;;;;5030115;28;20057;-53
2023/02/02 08:24:48;;;;;;;21.17;5.60;;;7.60;99.90;;;;;;5028184;28;20053;-53
2023/02/02 08:27:15;;;;;;;21.73;6.80;;;7.50;99.90;;;;;;5029270;28;20048;-46
2023/02/02 08:29:41;;;;;;;22.90;5.60;;;7.60;99.90;;;;;;5029280;28;20120;-46
2023/02/02 08:32:06;;;;;;;19.43;5.70;;;7.60;99.90;;;;;;5029549;28;20112;-50
2023/02/02 08:34:35;;;;;;;19.73;5.50;;;7.50;99.90;;;;;;5029087;28;20025;-53
2023/02/02 08:37:02;;;;;;;26.80;6.07;;;7.50;99.90;;;;;;5029240;28;20389;-48
2023/02/02 08:39:27;;;;;;;19.60;5.40;;;7.50;99.90;;;;;;5028453;28;20028;-52
2023/02/02 08:41:55;;;;;;;21.77;6.27;;;7.50;99.90;;;;;;5029844;28;20394;-55
2023/02/02 08:44:20;;;;;;;29.03;6.97;;;7.40;99.90;;;;;;5028946;28;20030;-52
2023/02/02 08:46:46;;;;;;;31.80;7.37;;;7.40;99.90;;;;;;5028963;28;20181;-57
2023/02/02 08:49:13;;;;;;;25.40;6.90;;;7.40;99.90;;;;;;5029236;28;20108;-54
2023/02/02 08:51:39;;;;;;;29.57;7.03;;;7.40;99.90;;;;;;5029661;28;20037;-47
2023/02/02 08:54:05;;;;;;;23.20;6.30;;;7.30;99.90;;;;;;5029216;28;20033;-52
2023/02/02 08:56:30;;;;;;;22.83;6.17;;;7.40;99.90;;;;;;5027433;28;20033;-53
2023/02/02 08:58:57;;;;;;;23.33;7.20;;;7.40;99.90;;;;;;5029367;28;20100;-54
2023/02/02 09:01:31;;;;;;;23.90;6.27;;;7.40;99.90;;;;;;5029482;28;20040;-53
2023/02/02 09:04:03;;;;;;;26.83;6.80;;;7.40;99.90;;;;;;5029845;28;20100;-52
2023/02/02 09:06:37;;;;;;;24.90;7.20;;;7.40;99.90;;;;;;5028630;28;20409;-53
2023/02/02 09:09:05;;;;;;;27.43;7.00;;;7.30;99.90;;;;;;5029467;28;20028;-53
2023/02/02 09:11:31;;;;;;;21.90;6.73;;;7.30;99.90;;;;;;5028839;28;20033;-52
2023/02/02 09:13:59;;;;;;;29.80;7.40;;;7.40;99.90;;;;;;5029082;28;20041;-51
2023/02/02 09:16:25;;;;;;;28.73;7.27;;;7.40;99.90;;;;;;5028792;28;20473;-52
2023/02/02 09:18:51;;;;;;;25.30;7.47;;;7.30;99.90;;;;;;5029239;28;20605;-50
2023/02/02 09:21:18;;;;;;;22.03;7.17;;;7.30;99.90;;;;;;5029104;28;20057;-51
2023/02/02 09:23:45;;;;;;;24.53;6.77;;;7.30;99.90;;;;;;5029184;28;20130;-54
2023/02/02 09:26:12;;;;;;;23.43;7.83;;;7.30;99.90;;;;;;5027637;28;20069;-51
2023/02/02 09:28:40;;;;;;;22.37;6.77;;;7.30;99.90;;;;;;5028864;28;20033;-50
2023/02/02 09:31:06;;;;;;;23.57;6.70;;;7.40;99.90;;;;;;5028943;28;20088;-53
2023/02/02 09:33:32;;;;;;;28.30;7.03;;;7.40;99.90;;;;;;5029021;28;20049;-51
2023/02/02 09:36:10;;;;;;;27.00;6.43;;;7.50;99.90;;;;;;5028719;28;20040;-53
2023/02/02 09:38:37;;;;;;;28.43;6.83;;;7.50;99.90;;;;;;5028627;28;20029;-55
2023/02/02 09:41:31;;;;;;;24.60;6.93;;;7.50;99.90;;;;;;5027653;28;20038;-53
2023/02/02 09:44:21;;;;;;;24.10;7.30;;;7.50;99.90;;;;;;5028803;28;20029;-52
2023/02/02 09:47:07;;;;;;;19.07;6.60;;;7.50;99.90;;;;;;5026737;23;20053;-53
2023/02/02 09:49:39;;;;;;;19.07;6.03;;;7.50;99.90;;;;;;5009141;28;20574;-52
2023/02/02 09:52:17;;;;;;;23.17;6.20;;;7.50;99.90;;;;;;5009307;28;20041;-50
2023/02/02 09:54:45;;;;;;;22.27;6.80;;;7.50;99.90;;;;;;5007577;28;20037;-51
2023/02/02 09:57:35;;;;;;;19.75;6.35;;;7.50;99.90;;;;;;5027218;28;20381;-54
2023/02/02 10:00:02;;;;;;;26.20;6.80;;;7.50;99.90;;;;;;5028323;28;20029;-52
2023/02/02 10:02:43;;;;;;;22.07;6.80;;;7.50;99.90;;;;;;5029054;28;20535;-52
2023/02/02 10:05:22;;;;;;;18.43;6.40;;;7.60;99.90;;;;;;5028277;28;20419;-53
2023/02/02 10:07:54;;;;;;;24.63;6.53;;;7.60;99.90;;;;;;5028830;28;20061;-50
2023/02/02 10:10:26;;;;;;;21.07;6.07;;;7.70;99.90;;;;;;5027190;28;20021;-49
2023/02/02 10:12:58;;;;;;;26.27;6.93;;;7.70;99.90;;;;;;5028927;28;20025;-51
2023/02/02 10:15:40;;;;;;;25.17;6.03;;;7.70;99.90;;;;;;5028153;28;20568;-51
2023/02/02 10:18:43;;;;;;;21.97;6.50;;;7.90;99.90;;;;;;5029657;28;20132;-49
2023/02/02 10:21:15;;;;;;;25.57;6.70;;;7.90;99.90;;;;;;5032106;28;20033;-51
2023/02/02 10:23:44;;;;;;;21.53;6.50;;;7.80;99.90;;;;;;5032308;28;20054;-51
2023/02/02 10:26:19;;;;;;;19.48;6.05;;;7.80;99.90;;;;;;5030878;28;20033;-51
2023/02/02 10:29:03;;;;;;;23.27;7.33;;;7.90;99.90;;;;;;5032434;28;20124;-51
2023/02/02 10:31:47;;;;;;;19.70;6.30;;;7.80;99.90;;;;;;5032076;28;20040;-53
2023/02/02 10:34:41;;;;;;;23.10;6.10;;;7.90;99.90;;;;;;5031886;28;20040;-51
2023/02/02 10:37:39;;;;;;;16.17;6.60;;;8.00;99.90;;;;;;5031834;28;20041;-50
2023/02/02 10:40:20;;;;;;;23.63;6.07;;;8.10;99.90;;;;;;5030966;28;20033;-52
2023/02/02 10:45:40;;;;;;;24.60;6.53;;;8.20;99.90;;;;;;5031515;28;20065;-53
2023/02/02 10:48:34;;;;;;;;;;;8.30;99.90;;;;;;5032387;28;20044;-51
2023/02/02 10:51:25;;;;;;;15.50;5.67;;;8.30;99.90;;;;;;5029674;28;19932;-53
2023/02/02 10:53:57;;;;;;;21.50;6.13;;;8.40;99.90;;;;;;5025702;28;20157;-51
2023/02/02 10:56:52;;;;;;;19.70;6.00;;;8.30;99.90;;;;;;5029902;28;20101;-50
2023/02/02 10:59:29;;;;;;;22.17;5.83;;;8.30;99.90;;;;;;5030401;28;20673;-51
2023/02/02 11:01:55;;;;;;;22.30;6.63;;;8.30;99.90;;;;;;5031854;28;20036;-50
2023/02/02 11:07:05;;;;;;;23.53;6.80;;;8.30;99.90;;;;;;5031811;28;20117;-48
2023/02/02 11:09:38;;;;;;;17.03;5.37;;;8.20;99.90;;;;;;5029999;28;20124;-51
2023/02/02 11:12:21;;;;;;;26.17;6.60;;;8.30;99.90;;;;;;5030762;28;20117;-51
2023/02/02 11:15:20;;;;;;;15.57;5.60;;;8.30;99.90;;;;;;5023505;28;20040;-53
2023/02/02 11:17:46;;;;;;;19.55;6.15;;;8.30;99.90;;;;;;5030656;28;20033;-51
2023/02/02 11:20:34;;;;;;;18.43;5.43;;;8.40;99.90;;;;;;5030992;28;20026;-52
2023/02/02 11:23:02;;;;;;;23.57;5.70;;;8.40;99.90;;;;;;5030285;28;20025;-52
2023/02/02 11:25:32;;;;;;;20.03;6.17;;;8.40;99.90;;;;;;5029182;28;20029;-53
2023/02/02 11:28:09;;;;;;;18.67;5.67;;;8.40;99.90;;;;;;5028933;28;20439;-50
2023/02/02 11:30:39;;;;;;;25.30;6.13;;;8.40;99.90;;;;;;5030228;28;20033;-51
2023/02/02 11:33:32;;;;;;;23.57;5.87;;;8.40;99.90;;;;;;5030847;28;20421;-54
2023/02/02 11:36:02;;;;;;;24.40;5.80;;;8.40;99.90;;;;;;5025877;28;20042;-51
2023/02/02 11:38:28;;;;;;;17.27;5.37;;;8.40;99.90;;;;;;5030362;28;20029;-53
2023/02/02 11:40:59;;;;;;;20.73;5.23;;;8.40;99.90;;;;;;5029489;28;20122;-54
2023/02/02 11:43:40;;;;;;;16.80;5.63;;;8.30;99.90;;;;;;5030148;28;20029;-51
2023/02/02 11:46:18;;;;;;;17.93;4.90;;;8.30;99.90;;;;;;5030154;28;20489;-55
2023/02/02 11:48:59;;;;;;;20.40;5.90;;;8.30;99.90;;;;;;5030771;28;20109;-54
2023/02/02 11:51:26;;;;;;;19.80;5.43;;;8.30;99.90;;;;;;5030230;28;20029;-52
2023/02/02 11:54:21;;;;;;;14.07;5.23;;;8.40;99.90;;;;;;5030276;28;20037;-52
2023/02/02 11:56:53;;;;;;;14.97;5.27;;;8.40;99.90;;;;;;5029390;28;20091;-52
2023/02/02 11:59:31;;;;;;;17.77;5.23;;;8.40;99.90;;;;;;5030169;28;20028;-53
2023/02/02 12:02:19;;;;;;;19.58;4.35;;;8.40;99.90;;;;;;5030342;28;20402;-55
2023/02/02 12:04:53;;;;;;;18.03;4.83;;;8.40;99.90;;;;;;5029745;28;20103;-52
2023/02/02 12:07:23;;;;;;;15.33;5.33;;;8.50;99.90;;;;;;5029359;28;20478;-51
2023/02/02 12:09:49;;;;;;;17.77;4.50;;;8.40;99.90;;;;;;5028657;28;20029;-53
2023/02/02 12:12:15;;;;;;;26.80;5.47;;;8.40;99.90;;;;;;5030090;28;20532;-53
2023/02/02 12:15:02;;;;;;;18.17;5.10;;;8.40;99.90;;;;;;5029611;28;20098;-50
2023/02/02 12:17:40;;;;;;;17.07;4.60;;;8.50;99.90;;;;;;5029438;28;20538;-49
2023/02/02 12:20:19;;;;;;;16.25;4.82;;;8.50;99.90;;;;;;5029846;28;20540;-52
2023/02/02 12:23:09;;;;;;;18.27;5.30;;;8.50;99.90;;;;;;5030383;28;20056;-51
2023/02/02 12:25:41;;;;;;;19.43;4.93;;;8.50;99.90;;;;;;5028418;28;20120;-54
2023/02/02 12:28:37;;;;;;;15.40;4.67;;;8.50;99.90;;;;;;5029181;28;20053;-53
2023/02/02 12:31:25;;;;;;;18.83;4.97;;;8.50;99.90;;;;;;5029620;28;20030;-52
2023/02/02 12:33:58;;;;;;;15.03;5.00;;;8.50;99.90;;;;;;5029414;28;20390;-53
2023/02/02 12:36:36;;;;;;;13.33;5.07;;;8.50;99.90;;;;;;5028581;28;20500;-55
2023/02/02 12:39:19;;;;;;;16.03;4.80;;;8.50;99.90;;;;;;5029655;28;20025;-52
2023/02/02 12:42:06;;;;;;;20.37;5.10;;;8.50;99.90;;;;;;5028721;28;20046;-52
2023/02/02 12:44:49;;;;;;;22.43;5.33;;;8.50;99.90;;;;;;5029000;28;20038;-52
2023/02/02 12:47:39;;;;;;;18.83;5.13;;;8.50;99.90;;;;;;5028826;28;20457;-51
2023/02/02 12:50:19;;;;;;;17.40;4.73;;;8.50;99.90;;;;;;5028982;28;20059;-52
2023/02/02 12:53:07;;;;;;;19.27;5.20;;;8.50;99.90;;;;;;5029294;28;20297;-53
2023/02/02 12:56:21;;;;;;;21.47;5.13;;;8.50;99.90;;;;;;5026129;28;20029;-54
2023/02/02 12:59:21;;;;;;;18.43;5.37;;;8.50;99.90;;;;;;5024312;28;20454;-51
2023/02/02 13:01:47;;;;;;;18.00;4.67;;;8.40;99.90;;;;;;5028286;28;20026;-49
2023/02/02 13:04:22;;;;;;;16.43;4.80;;;8.50;99.90;;;;;;5028532;28;20036;-53
2023/02/02 13:07:19;;;;;;;16.67;4.67;;;8.50;99.90;;;;;;5028405;28;20044;-48
2023/02/02 13:10:00;;;;;;;17.07;4.27;;;8.50;99.90;;;;;;5027371;28;20025;-48
2023/02/02 13:12:28;;;;;;;19.30;4.97;;;8.50;99.90;;;;;;5028947;28;20576;-51
2023/02/02 13:15:02;;;;;;;27.08;9.30;;;8.40;99.90;;;;;;5028529;28;20128;-49
2023/02/02 13:17:42;;;;;;;17.47;5.83;;;8.40;99.90;;;;;;5028375;28;20060;-50
2023/02/02 13:20:21;;;;;;;20.00;4.93;;;8.30;99.90;;;;;;5028416;28;20132;-42
2023/02/02 13:22:49;;;;;;;;;;;8.40;99.90;;;;;;5029229;28;20026;-41
2023/02/02 13:25:33;;;;;;;16.70;5.03;;;8.40;99.90;;;;;;5027445;28;19916;-41